Nearby METAR Reports

 

KSJC - San Jose, California, USA
Distance from station: NE 14km
Updated: 03/12/2021 04:53
Mist, Overcast
Mist, Overcast
 Wind from calm
Wind: Calm
Temperature: 12°C
Dew Point: 11°C
Humidity: 94%
Barometer: 1019.6 hPa
Summary: Mist
Clouds: Overcast
Visibility: 2.4 km
Cloud details: Overcast 91 m
2021/12/03 08:53 KSJC 030853Z AUTO 00000KT 1 1/2SM BR OVC003 12/11 A3011 RMK AO2 SLP196 T01220111 56003
KNUQ - Moffett Nas/Mtn, California, USA
Distance from station: N 14km
Updated: 03/12/2021 05:35
Mist, Overcast
Mist, Overcast
 Wind from calm
Wind: Calm
Temperature: 12°C
Dew Point: 11°C
Humidity: 94%
Barometer: 1019.6 hPa
Summary: Mist
Clouds: Overcast
Visibility: 3 km
Cloud details: Overcast 122 m
2021/12/03 09:35 KNUQ 030935Z AUTO 00000KT 2SM BR OVC004 12/11 A3011 RMK AO2
 
KPAO - Palo Alto, California, USA
Distance from station: NNW 23km
Updated: 03/12/2021 00:47
NOT Current
Partly cloudy
Partly cloudy
 Wind from calm
Wind: Calm
Temperature: 11°C
Dew Point: 9°C
Humidity: 88%
Barometer: 1021 hPa
Clouds: Partly cloudy
Visibility: 11 km
Cloud details: Partly cloudy 6096 m
2021/12/03 04:47 KPAO 030447Z 00000KT 7SM SCT200 11/09 A3015 HZ RMK LAST
KRHV - San Jose/Reid, California, USA
Distance from station: ENE 19km
Updated: 02/12/2021 23:47
NOT Current
Haze, Mostly cloudy
Haze, Mostly cloudy
 Wind from calm
Wind: Calm
Temperature: 13°C
Dew Point: 8°C
Humidity: 72%
Barometer: 1019.3 hPa
Summary: Haze
Clouds: Mostly cloudy
Visibility: 10 km
Cloud details: Partly cloudy 3048 m
Mostly cloudy 4877 m
2021/12/03 03:47 KRHV 030347Z 00000KT 6SM HZ SCT100 BKN160 13/08 A3010
 
KOAK - Oakland, California, USA
Distance from station: NNW 50km
Updated: 03/12/2021 04:53
Mist, Overcast
Mist, Overcast
 Wind from NE
Wind: NE 6 km/h
Temperature: 12°C
Dew Point: 11°C
Humidity: 94%
Barometer: 1020 hPa
Summary: Mist
Clouds: Overcast
Visibility: 5 km
Cloud details: Overcast 183 m
2021/12/03 08:53 KOAK 030853Z 05003KT 3SM BR OVC006 12/11 A3012 RMK AO2 SLP200 T01170106 58001
KSQL - San Carlos Airpo, California, USA
Distance from station: NW 34km
Updated: 03/12/2021 05:35
Mist, Overcast
Mist, Overcast
 Wind from calm
Wind: Calm
Temperature: 12°C
Dew Point: 12°C
Humidity: 100%
Barometer: 1020.3 hPa
Summary: Mist
Clouds: Overcast
Visibility: 5 km
Cloud details: Overcast 183 m
2021/12/03 09:35 KSQL 030935Z AUTO 00000KT 3SM BR OVC006 12/12 A3013 RMK AO2
 
KSFO - San Francisco, California, USA
Distance from station: NW 49km
Updated: 03/12/2021 04:56
Mist, Overcast
Mist, Overcast
 Wind from NW
Wind: NW 7 km/h
Temperature: 12°C
Dew Point: 10°C
Humidity: 88%
Barometer: 1019.6 hPa
Summary: Mist
Clouds: Overcast
Visibility: 8 km
Cloud details: Few Clouds 122 m
Overcast 213 m
2021/12/03 08:56 KSFO 030856Z 31004KT 5SM BR FEW004 OVC007 12/10 A3011 RMK AO2 SLP197 T01170100 58000
KE16 - San Martin, California, USA
Distance from station: ESE 43km
Updated: 03/12/2021 05:35
Fog, Overcast
Fog, Overcast
 Wind from SSE
Wind: SSE 6 km/h
Temperature: 9°C
Dew Point: 9°C
Humidity: 100%
Barometer: 1020.7 hPa
Summary: Fog
Clouds: Overcast
Visibility: 0.8 km
Cloud details: Overcast 61 m
2021/12/03 09:35 KE16 030935Z AUTO 16003KT 1/2SM FG OVC002 09/09 A3014 RMK AO2 PWINO PNO
 
KWVI - Watsonville, California, USA
Distance from station: SSE 44km
Updated: 03/12/2021 04:53
Mist, Overcast
Mist, Overcast
 Wind from calm
Wind: Calm
Temperature: 11°C
Dew Point: 11°C
Humidity: 100%
Barometer: 1020 hPa
Summary: Mist
Clouds: Overcast
Visibility: 8 km
Cloud details: Overcast 122 m
2021/12/03 08:53 KWVI 030853Z AUTO 00000KT 5SM BR OVC004 11/11 A3012 RMK AO2 SLP199 T01110106 58008
KHAF - Half Moon Bay, California, USA
Distance from station: WNW 50km
Updated: 03/12/2021 05:35
Mist, Overcast
Mist, Overcast
 Wind from E
Wind: E 7 km/h
Temperature: 11°C
Dew Point: 11°C
Humidity: 100%
Barometer: 1020 hPa
Summary: Mist
Clouds: Overcast
Visibility: 5 km
Cloud details: Overcast 122 m
2021/12/03 09:35 KHAF 030935Z AUTO 08004KT 3SM BR OVC004 11/11 A3012 RMK AO2
 
KHWD - Hayward, California, USA
Distance from station: N 44km
Updated: 03/12/2021 05:19
Mist, Overcast
Mist, Overcast
 Wind from N
Wind: N 6 km/h
Temperature: 12°C
Dew Point: 11°C
Humidity: 94%
Barometer: 1019.6 hPa
Summary: Mist
Clouds: Overcast
Visibility: 3 km
Cloud details: Overcast 91 m
2021/12/03 09:19 KHWD 030919Z AUTO 01003KT 2SM BR OVC003 12/11 A3011 RMK AO2 T01220106
KLVK - Livermore, California, USA
Distance from station: NNE 51km
Updated: 03/12/2021 05:44
Mist, Mostly cloudy
Mist, Mostly cloudy
 Wind from calm
Wind: Calm
Temperature: 6°C
Dew Point: 6°C
Humidity: 100%
Barometer: 1019.3 hPa
Summary: Mist
Clouds: Mostly cloudy
Visibility: 2.8 km
Cloud details: Mostly cloudy 61 m
2021/12/03 09:44 KLVK 030944Z AUTO 00000KT 1 3/4SM BR BKN002 06/06 A3010 RMK AO2 T00610061